createdAt,value
2023-08-22T00:01:57.962Z,100820.13
2023-08-22T00:04:28.381Z,100819.69
2023-08-22T00:06:57.491Z,100821.13
2023-08-22T00:09:28.260Z,100817.56
2023-08-22T00:11:56.766Z,100824.81
2023-08-22T00:14:25.886Z,100816.31
2023-08-22T00:16:56.095Z,100832.47
2023-08-22T00:19:24.700Z,100816.31
2023-08-22T00:21:52.573Z,100819.84
2023-08-22T00:24:21.397Z,100814.88
2023-08-22T00:26:50.691Z,100805.13
2023-08-22T00:29:21.834Z,100804.06
2023-08-22T00:31:49.967Z,100813.78
2023-08-22T00:34:18.407Z,100805.59
2023-08-22T00:36:46.704Z,100807.88
2023-08-22T00:39:14.955Z,100802.25
2023-08-22T00:41:43.335Z,100800.53
2023-08-22T00:44:12.838Z,100803.22
2023-08-22T00:46:41.436Z,100802.59
2023-08-22T00:49:11.596Z,100803.59
2023-08-22T00:51:40.957Z,100804.84
2023-08-22T00:54:09.737Z,100807.28
2023-08-22T00:56:39.252Z,100805.81
2023-08-22T00:59:08.333Z,100797.09
2023-08-22T01:01:38.243Z,100800.59
2023-08-22T01:04:09.572Z,100803.25
2023-08-22T01:06:48.989Z,100805.25
2023-08-22T01:09:28.396Z,100800.06
2023-08-22T01:12:04.836Z,100798.19
2023-08-22T01:14:38.799Z,100801.06
2023-08-22T01:17:13.003Z,100796.31
2023-08-22T01:19:43.657Z,100793.19
2023-08-22T01:22:16.400Z,100799.78
2023-08-22T01:24:44.708Z,100794.91
2023-08-22T01:27:16.959Z,100786.84
2023-08-22T01:30:02.255Z,100788.25
2023-08-22T01:32:36.231Z,100787.19
2023-08-22T01:35:08.099Z,100788.06
2023-08-22T01:37:38.960Z,100778.31
2023-08-22T01:40:11.477Z,100779.78
2023-08-22T01:42:41.491Z,100767.31
2023-08-22T01:45:11.532Z,100770.59
2023-08-22T01:47:40.125Z,100767.28
2023-08-22T01:50:12.539Z,100764.50
2023-08-22T01:52:42.462Z,100763.44
2023-08-22T01:55:12.697Z,100769.66
2023-08-22T01:57:41.319Z,100759.44
2023-08-22T02:00:17.101Z,100767.50
2023-08-22T02:02:46.036Z,100772.00
2023-08-22T02:05:14.282Z,100772.19
2023-08-22T02:07:46.875Z,100777.75
2023-08-22T02:10:15.240Z,100772.38
2023-08-22T02:12:43.996Z,100771.09
2023-08-22T02:15:12.744Z,100771.31
2023-08-22T02:17:42.222Z,100767.31
2023-08-22T02:20:11.994Z,100768.75
2023-08-22T02:22:41.504Z,100773.28
2023-08-22T02:25:12.503Z,100771.78
2023-08-22T02:27:40.851Z,100770.59
2023-08-22T02:30:13.259Z,100776.34
2023-08-22T02:32:41.944Z,100773.84
2023-08-22T02:35:10.777Z,100779.03
2023-08-22T02:37:42.332Z,100777.75
2023-08-22T02:40:13.735Z,100774.66
2023-08-22T02:42:42.881Z,100768.66
2023-08-22T02:45:12.342Z,100769.28
2023-08-22T02:47:40.747Z,100778.00
2023-08-22T02:50:10.190Z,100775.13
2023-08-22T02:52:38.734Z,100780.03
2023-08-22T02:55:09.617Z,100782.72
2023-08-22T02:57:39.378Z,100782.72
2023-08-22T03:00:12.482Z,100777.75
2023-08-22T03:02:41.941Z,100778.75
2023-08-22T03:05:14.109Z,100777.44
2023-08-22T03:07:43.743Z,100784.22
2023-08-22T03:10:15.320Z,100773.03
2023-08-22T03:12:48.169Z,100784.78
2023-08-22T03:15:19.249Z,100783.13
2023-08-22T03:17:50.097Z,100790.16
2023-08-22T03:20:21.551Z,100788.13
2023-08-22T03:22:53.208Z,100787.50
2023-08-22T03:25:22.427Z,100788.50
2023-08-22T03:27:56.789Z,100786.28
2023-08-22T03:30:26.046Z,100796.44
2023-08-22T03:32:54.273Z,100796.34
2023-08-22T03:35:22.707Z,100792.19
2023-08-22T03:37:51.062Z,100795.91
2023-08-22T03:40:19.542Z,100788.06
2023-08-22T03:42:49.604Z,100785.53
2023-08-22T03:45:19.524Z,100787.78
2023-08-22T03:47:48.969Z,100782.59
2023-08-22T03:50:19.325Z,100786.69
2023-08-22T03:52:50.412Z,100779.84
2023-08-22T03:55:18.642Z,100788.00
2023-08-22T03:57:49.945Z,100786.75
2023-08-22T04:00:22.130Z,100786.69
2023-08-22T04:02:57.692Z,100783.38
2023-08-22T04:05:30.897Z,100788.91
2023-08-22T04:07:59.457Z,100785.38
2023-08-22T04:10:27.867Z,100790.97
2023-08-22T04:12:57.138Z,100787.16
2023-08-22T04:15:26.751Z,100791.88
2023-08-22T04:17:54.662Z,100791.25
2023-08-22T04:20:25.362Z,100784.22
2023-08-22T04:22:56.721Z,100792.28
2023-08-22T04:25:26.006Z,100789.13
2023-08-22T04:28:00.913Z,100796.72
2023-08-22T04:30:31.385Z,100790.97
2023-08-22T04:33:01.051Z,100792.16
2023-08-22T04:35:32.832Z,100791.91
2023-08-22T04:38:02.199Z,100787.75
2023-08-22T04:40:31.206Z,100794.31
2023-08-22T04:43:07.267Z,100792.47
2023-08-22T04:45:45.604Z,100788.56
2023-08-22T04:48:16.296Z,100791.63
2023-08-22T04:50:45.004Z,100799.28
2023-08-22T04:53:14.210Z,100806.69
2023-08-22T04:55:44.483Z,100800.50
2023-08-22T04:58:13.002Z,100805.88
2023-08-22T05:00:43.642Z,100806.13
2023-08-22T05:03:16.507Z,100807.78
2023-08-22T05:05:48.499Z,100808.81
2023-08-22T05:08:16.714Z,100805.78
2023-08-22T05:10:45.973Z,100810.78
2023-08-22T05:13:16.012Z,100814.38
2023-08-22T05:15:52.416Z,100808.63
2023-08-22T05:18:22.933Z,100812.16
2023-08-22T05:20:54.198Z,100808.09
2023-08-22T05:23:25.106Z,100809.19
2023-08-22T05:25:54.789Z,100816.22
2023-08-22T05:28:48.951Z,100817.53
2023-08-22T05:31:22.437Z,100820.09
2023-08-22T05:33:52.612Z,100822.50
2023-08-22T05:36:23.123Z,100818.50
2023-08-22T05:38:54.137Z,100818.88
2023-08-22T05:41:23.331Z,100830.78
2023-08-22T05:43:56.439Z,100830.09
2023-08-22T05:46:29.098Z,100835.34
2023-08-22T05:48:57.832Z,100827.16
2023-08-22T05:51:26.376Z,100824.34
2023-08-22T05:54:00.065Z,100828.97
2023-08-22T05:56:29.635Z,100826.91
2023-08-22T05:58:57.828Z,100832.91
2023-08-22T06:01:28.252Z,100835.59
2023-08-22T06:03:57.773Z,100837.91
2023-08-22T06:06:27.369Z,100838.56
2023-08-22T06:08:58.222Z,100841.50
2023-08-22T06:11:26.263Z,100842.78
2023-08-22T06:13:57.209Z,100838.09
2023-08-22T06:16:25.352Z,100839.91
2023-08-22T06:18:53.691Z,100841.66
2023-08-22T06:21:23.254Z,100829.47
2023-08-22T06:23:51.939Z,100838.81
2023-08-22T06:26:21.958Z,100835.72
2023-08-22T06:28:52.989Z,100831.81
2023-08-22T06:31:21.587Z,100843.66
2023-08-22T06:33:50.225Z,100836.88
2023-08-22T06:36:20.953Z,100828.63
2023-08-22T06:38:50.785Z,100834.03
2023-08-22T06:41:19.519Z,100829.94
2023-08-22T06:43:48.961Z,100837.84
2023-08-22T06:46:23.854Z,100835.38
2023-08-22T06:48:58.800Z,100835.63
2023-08-22T06:51:27.619Z,100833.00
2023-08-22T06:53:57.217Z,100827.84
2023-08-22T06:56:28.447Z,100829.56
2023-08-22T06:58:56.499Z,100825.66
2023-08-22T07:01:24.746Z,100834.16
2023-08-22T07:04:06.347Z,100838.09
2023-08-22T07:06:42.097Z,100833.59
2023-08-22T07:09:13.151Z,100829.91
2023-08-22T07:14:15.720Z,100835.72
2023-08-22T07:16:44.277Z,100835.75
2023-08-22T07:19:24.563Z,100832.25
2023-08-22T07:22:00.585Z,100833.94
2023-08-22T07:24:30.122Z,100842.06
2023-08-22T07:27:01.333Z,100838.56
2023-08-22T07:29:30.212Z,100846.66
2023-08-22T07:32:01.473Z,100847.69
2023-08-22T07:34:32.270Z,100852.25
2023-08-22T07:37:02.786Z,100844.16
2023-08-22T07:39:35.486Z,100857.63
2023-08-22T07:42:05.339Z,100858.47
2023-08-22T07:44:38.358Z,100855.19
2023-08-22T07:47:10.047Z,100857.06
2023-08-22T07:49:42.656Z,100857.06
2023-08-22T07:52:13.081Z,100856.91
2023-08-22T07:54:46.013Z,100852.13
2023-08-22T07:57:19.338Z,100857.94
2023-08-22T07:59:47.991Z,100857.94
2023-08-22T08:02:18.766Z,100853.81
2023-08-22T08:04:51.381Z,100857.13
2023-08-22T08:07:21.834Z,100851.75
2023-08-22T08:09:52.751Z,100860.09
2023-08-22T08:12:20.919Z,100859.25
2023-08-22T08:14:48.933Z,100860.06
2023-08-22T08:17:24.650Z,100852.41
2023-08-22T08:19:57.185Z,100854.91
2023-08-22T08:22:26.019Z,100849.88
2023-08-22T08:24:58.181Z,100850.53
2023-08-22T08:27:26.554Z,100851.16
2023-08-22T08:29:56.568Z,100845.94
2023-08-22T08:32:30.452Z,100846.97
2023-08-22T08:35:07.351Z,100844.25
2023-08-22T08:37:40.845Z,100845.09
2023-08-22T08:40:15.818Z,100855.91
2023-08-22T08:42:44.906Z,100849.44
2023-08-22T08:45:20.849Z,100852.50
2023-08-22T08:47:53.390Z,100846.88
2023-08-22T08:50:26.612Z,100848.50
2023-08-22T08:52:56.069Z,100842.84
2023-08-22T08:55:52.472Z,100847.19
2023-08-22T08:58:23.687Z,100840.56
2023-08-22T09:00:59.841Z,100846.16
2023-08-22T09:03:33.450Z,100851.53
2023-08-22T09:06:02.252Z,100843.59
2023-08-22T09:08:40.829Z,100843.16
2023-08-22T09:11:29.031Z,100846.44
2023-08-22T09:14:02.197Z,100848.03
2023-08-22T09:16:39.552Z,100850.50
2023-08-22T09:19:11.170Z,100848.81
2023-08-22T09:21:59.914Z,100847.94
2023-08-22T09:24:32.061Z,100837.94
2023-08-22T09:27:06.340Z,100839.97
2023-08-22T09:29:52.184Z,100841.56
2023-08-22T09:32:23.952Z,100849.84
2023-08-22T09:35:02.156Z,100842.91
2023-08-22T09:37:33.175Z,100840.97
2023-08-22T09:40:11.917Z,100844.66
2023-08-22T09:42:43.587Z,100851.31
2023-08-22T09:45:16.891Z,100837.69
2023-08-22T09:47:50.595Z,100841.38
2023-08-22T09:50:22.789Z,100844.66
2023-08-22T09:52:53.455Z,100843.09
2023-08-22T09:55:22.969Z,100847.31
2023-08-22T09:57:58.260Z,100851.53
2023-08-22T10:00:31.842Z,100862.63
2023-08-22T10:03:05.156Z,100850.34
2023-08-22T10:05:36.809Z,100847.06
2023-08-22T10:08:05.885Z,100850.91
2023-08-22T10:10:34.832Z,100850.13
2023-08-22T10:13:06.525Z,100850.66
2023-08-22T10:15:36.602Z,100860.94
2023-08-22T10:18:06.105Z,100852.25
2023-08-22T10:20:39.780Z,100848.25
2023-08-22T10:23:17.553Z,100849.69
2023-08-22T10:25:49.510Z,100845.19
2023-08-22T10:28:21.626Z,100845.69
2023-08-22T10:31:07.987Z,100839.41
2023-08-22T10:33:36.265Z,100841.06
2023-08-22T10:36:11.169Z,100839.88
2023-08-22T10:38:59.023Z,100834.34
2023-08-22T10:41:45.849Z,100831.63
2023-08-22T10:44:28.284Z,100836.13
2023-08-22T10:47:00.700Z,100829.97
2023-08-22T10:49:32.008Z,100832.59
2023-08-22T10:52:07.686Z,100829.97
2023-08-22T10:54:36.255Z,100828.66
2023-08-22T10:57:20.157Z,100835.41
2023-08-22T11:00:09.057Z,100830.13
2023-08-22T11:02:38.907Z,100831.06
2023-08-22T11:05:12.681Z,100831.94
2023-08-22T11:07:51.912Z,100827.69
2023-08-22T11:10:24.217Z,100819.28
2023-08-22T11:12:58.048Z,100826.22
2023-08-22T11:15:27.653Z,100822.84
2023-08-22T11:17:59.473Z,100815.13
2023-08-22T11:20:31.289Z,100822.94
2023-08-22T11:23:05.214Z,100820.19
2023-08-22T11:25:39.552Z,100820.09
2023-08-22T11:28:33.199Z,100817.16
2023-08-22T11:31:06.906Z,100824.13
2023-08-22T11:33:38.668Z,100820.25
2023-08-22T11:36:10.147Z,100822.44
2023-08-22T11:38:38.440Z,100818.53
2023-08-22T11:41:09.260Z,100813.19
2023-08-22T11:43:41.872Z,100817.28
2023-08-22T11:46:17.288Z,100811.31
2023-08-22T11:48:45.692Z,100812.78
2023-08-22T11:51:22.629Z,100803.06
2023-08-22T11:53:53.304Z,100797.09
2023-08-22T11:56:21.965Z,100803.59
2023-08-22T11:58:56.967Z,100805.16
2023-08-22T12:01:29.714Z,100792.84
2023-08-22T12:03:58.910Z,100792.28
2023-08-22T12:06:27.159Z,100794.75
2023-08-22T12:09:02.317Z,100788.72
2023-08-22T12:11:36.377Z,100800.69
2023-08-22T12:14:04.706Z,100794.25
2023-08-22T12:16:34.350Z,100786.56
2023-08-22T12:19:12.362Z,100782.38
2023-08-22T12:21:40.369Z,100775.25
2023-08-22T12:24:10.551Z,100777.88
2023-08-22T12:26:38.725Z,100783.91
2023-08-22T12:29:09.534Z,100786.63
2023-08-22T12:31:42.005Z,100783.41
2023-08-22T12:34:13.028Z,100783.91
2023-08-22T12:36:43.978Z,100783.28
2023-08-22T12:39:15.086Z,100786.16
2023-08-22T12:41:48.404Z,100785.56
2023-08-22T12:44:16.677Z,100779.16
2023-08-22T12:46:55.521Z,100777.09
2023-08-22T12:49:25.779Z,100776.66
2023-08-22T12:51:55.197Z,100768.34
2023-08-22T12:54:26.025Z,100773.34
2023-08-22T12:56:58.586Z,100777.50
2023-08-22T12:59:28.480Z,100764.16
2023-08-22T13:02:03.830Z,100775.75
2023-08-22T13:04:38.986Z,100769.28
2023-08-22T13:07:10.742Z,100761.91
2023-08-22T13:09:41.512Z,100757.69
2023-08-22T13:12:12.143Z,100758.03
2023-08-22T13:14:40.329Z,100761.59
2023-08-22T13:17:12.149Z,100753.13
2023-08-22T13:19:43.198Z,100762.72
2023-08-22T13:22:13.857Z,100755.38
2023-08-22T13:24:46.522Z,100755.94
2023-08-22T13:27:15.703Z,100743.59
2023-08-22T13:29:43.984Z,100745.53
2023-08-22T13:32:14.724Z,100743.31
2023-08-22T13:34:44.346Z,100740.31
2023-08-22T13:37:15.509Z,100747.16
2023-08-22T13:39:44.899Z,100741.69
2023-08-22T13:42:12.957Z,100745.78
2023-08-22T13:44:45.130Z,100743.88
2023-08-22T13:47:15.301Z,100738.91
2023-08-22T13:49:43.846Z,100735.06
2023-08-22T13:52:11.767Z,100737.78
2023-08-22T13:54:41.462Z,100730.34
2023-08-22T13:57:12.608Z,100727.56
2023-08-22T13:59:42.054Z,100720.44
2023-08-22T14:02:11.264Z,100730.34
2023-08-22T14:04:41.152Z,100739.66
2023-08-22T14:07:09.476Z,100734.63
2023-08-22T14:09:37.941Z,100735.25
2023-08-22T14:12:06.649Z,100738.94
2023-08-22T14:14:36.776Z,100739.84
2023-08-22T14:17:05.929Z,100741.66
2023-08-22T14:19:35.467Z,100752.47
2023-08-22T14:22:04.917Z,100744.09
2023-08-22T14:24:32.937Z,100739.91
2023-08-22T14:27:00.872Z,100742.00
2023-08-22T14:29:31.644Z,100738.63
2023-08-22T14:32:00.680Z,100733.03
2023-08-22T14:34:32.234Z,100730.25
2023-08-22T14:37:12.562Z,100722.41
2023-08-22T14:39:55.561Z,100729.22
2023-08-22T14:42:25.710Z,100725.56
2023-08-22T14:44:54.007Z,100718.25
2023-08-22T14:47:23.248Z,100718.47
2023-08-22T14:49:51.450Z,100725.81
2023-08-22T14:52:20.620Z,100722.97
2023-08-22T14:54:50.187Z,100713.03
2023-08-22T14:57:21.014Z,100717.13
2023-08-22T14:59:49.334Z,100722.78
2023-08-22T15:02:21.753Z,100718.22
2023-08-22T15:04:51.754Z,100715.50
2023-08-22T15:07:28.792Z,100715.00
2023-08-22T15:09:58.413Z,100713.22
2023-08-22T15:12:28.412Z,100707.16
2023-08-22T15:15:01.105Z,100710.38
2023-08-22T15:17:35.157Z,100708.50
2023-08-22T15:20:06.653Z,100711.00
2023-08-22T15:22:38.649Z,100711.25
2023-08-22T15:25:09.654Z,100705.25
2023-08-22T15:27:39.748Z,100718.66
2023-08-22T15:30:13.129Z,100711.28
2023-08-22T15:32:41.921Z,100715.91
2023-08-22T15:35:13.867Z,100716.22
2023-08-22T15:37:47.720Z,100713.41
2023-08-22T15:40:17.241Z,100719.34
2023-08-22T15:42:46.533Z,100718.19
2023-08-22T15:45:14.826Z,100719.28
2023-08-22T15:47:43.417Z,100714.56
2023-08-22T15:50:13.271Z,100719.63
2023-08-22T15:52:44.460Z,100716.34
2023-08-22T15:55:12.953Z,100726.63
2023-08-22T15:57:44.705Z,100706.34
2023-08-22T16:00:15.205Z,100718.41
2023-08-22T16:02:46.892Z,100714.63
2023-08-22T16:05:15.616Z,100724.66
2023-08-22T16:07:50.504Z,100720.97
2023-08-22T16:10:19.043Z,100719.63
2023-08-22T16:12:48.556Z,100711.84
2023-08-22T16:15:27.875Z,100704.72
2023-08-22T16:17:56.410Z,100710.47
2023-08-22T16:20:26.189Z,100707.06
2023-08-22T16:22:54.829Z,100708.09
2023-08-22T16:25:25.526Z,100704.22
2023-08-22T16:27:53.835Z,100713.16
2023-08-22T16:30:26.895Z,100706.13
2023-08-22T16:32:55.346Z,100714.31
2023-08-22T16:35:23.315Z,100714.47
2023-08-22T16:37:55.884Z,100717.28
2023-08-22T16:40:24.203Z,100717.50
2023-08-22T16:42:52.505Z,100719.88
2023-08-22T16:45:21.524Z,100713.88
2023-08-22T16:47:54.810Z,100711.72
2023-08-22T16:50:23.365Z,100710.06
2023-08-22T16:52:54.501Z,100710.03
2023-08-22T16:55:26.319Z,100712.69
2023-08-22T16:57:58.312Z,100716.28
2023-08-22T17:00:30.314Z,100717.81
2023-08-22T17:02:59.858Z,100712.09
2023-08-22T17:05:30.687Z,100717.22
2023-08-22T17:08:01.248Z,100711.66
2023-08-22T17:10:30.360Z,100713.09
2023-08-22T17:13:02.027Z,100726.06
2023-08-22T17:15:31.604Z,100725.53
2023-08-22T17:18:03.812Z,100728.28
2023-08-22T17:20:32.398Z,100735.16
2023-08-22T17:23:01.630Z,100730.38
2023-08-22T17:25:29.658Z,100733.84
2023-08-22T17:28:01.980Z,100737.03
2023-08-22T17:30:31.581Z,100733.25
2023-08-22T17:32:59.571Z,100734.31
2023-08-22T17:35:29.211Z,100733.59
2023-08-22T17:37:59.233Z,100729.69
2023-08-22T17:40:27.820Z,100725.69
2023-08-22T17:42:57.909Z,100728.22
2023-08-22T17:45:26.608Z,100728.19
2023-08-22T17:47:56.050Z,100731.28
2023-08-22T17:50:24.232Z,100728.81
2023-08-22T17:52:54.969Z,100728.84
2023-08-22T17:55:26.133Z,100726.53
2023-08-22T17:57:54.116Z,100731.03
2023-08-22T18:00:25.392Z,100727.50
2023-08-22T18:02:53.426Z,100727.75
2023-08-22T18:05:22.148Z,100728.69
2023-08-22T18:07:53.900Z,100736.50
2023-08-22T18:10:21.994Z,100738.34
2023-08-22T18:12:50.976Z,100743.56
2023-08-22T18:15:19.264Z,100744.19
2023-08-22T18:17:48.300Z,100751.94
2023-08-22T18:20:16.432Z,100743.56
2023-08-22T18:22:47.003Z,100743.28
2023-08-22T18:25:17.130Z,100744.88
2023-08-22T18:27:52.087Z,100745.44
2023-08-22T18:30:21.914Z,100748.06
2023-08-22T18:32:53.287Z,100749.53
2023-08-22T18:35:22.426Z,100754.66
2023-08-22T18:37:51.145Z,100754.34
2023-08-22T18:40:21.380Z,100761.16
2023-08-22T18:42:49.285Z,100755.38
2023-08-22T18:45:18.137Z,100760.28
2023-08-22T18:47:46.691Z,100751.81
2023-08-22T18:50:16.091Z,100761.06
2023-08-22T18:52:45.928Z,100756.97
2023-08-22T18:55:14.624Z,100770.78
2023-08-22T18:57:45.515Z,100766.69
2023-08-22T19:00:19.844Z,100769.88
2023-08-22T19:02:50.920Z,100767.00
2023-08-22T19:05:22.378Z,100768.94
2023-08-22T19:07:50.921Z,100766.75
2023-08-22T19:10:20.109Z,100770.31
2023-08-22T19:12:50.238Z,100772.22
2023-08-22T19:15:21.020Z,100773.09
2023-08-22T19:17:53.199Z,100776.47
2023-08-22T19:20:21.414Z,100776.47
2023-08-22T19:22:49.863Z,100781.72
2023-08-22T19:25:17.917Z,100779.84
2023-08-22T19:27:46.796Z,100785.69
2023-08-22T19:30:17.901Z,100788.63
2023-08-22T19:33:10.665Z,100783.28
2023-08-22T19:35:39.148Z,100789.13
2023-08-22T19:38:09.120Z,100787.88
2023-08-22T19:40:46.330Z,100800.53
2023-08-22T19:43:17.254Z,100793.94
2023-08-22T19:45:47.398Z,100792.06
2023-08-22T19:48:18.048Z,100796.47
2023-08-22T19:50:47.257Z,100796.28
2023-08-22T19:53:17.167Z,100803.94
2023-08-22T19:55:45.646Z,100800.41
2023-08-22T19:58:13.913Z,100811.22
2023-08-22T20:00:42.906Z,100808.31
2023-08-22T20:03:16.080Z,100814.38
2023-08-22T20:05:45.431Z,100811.66
2023-08-22T20:08:14.126Z,100814.78
2023-08-22T20:10:42.353Z,100808.16
2023-08-22T20:13:10.353Z,100812.72
2023-08-22T20:15:39.665Z,100808.81
2023-08-22T20:18:08.139Z,100810.84
2023-08-22T20:20:39.247Z,100802.59
2023-08-22T20:23:07.852Z,100806.50
2023-08-22T20:25:37.735Z,100810.28
2023-08-22T20:28:09.352Z,100808.59
2023-08-22T20:30:37.550Z,100807.13
2023-08-22T20:33:05.827Z,100814.38
2023-08-22T20:35:36.807Z,100797.38
2023-08-22T20:38:06.148Z,100808.34
2023-08-22T20:40:34.375Z,100806.06
2023-08-22T20:43:02.963Z,100803.78
2023-08-22T20:45:31.144Z,100811.44
2023-08-22T20:47:59.239Z,100803.13
2023-08-22T20:50:28.218Z,100811.66
2023-08-22T20:52:56.533Z,100807.69
2023-08-22T20:55:26.589Z,100803.56
2023-08-22T20:57:56.451Z,100806.22
2023-08-22T21:00:25.284Z,100811.63
2023-08-22T21:02:54.586Z,100815.09
2023-08-22T21:05:23.053Z,100809.47
2023-08-22T21:07:51.625Z,100815.47
2023-08-22T21:10:23.174Z,100816.88
2023-08-22T21:12:53.191Z,100813.56
2023-08-22T21:15:27.197Z,100821.22
2023-08-22T21:17:55.558Z,100829.31
2023-08-22T21:20:23.649Z,100823.50
2023-08-22T21:22:51.821Z,100829.25
2023-08-22T21:25:20.390Z,100820.34
2023-08-22T21:27:50.631Z,100832.34
2023-08-22T21:30:24.708Z,100825.31
2023-08-22T21:32:54.369Z,100830.88
2023-08-22T21:35:24.945Z,100827.75
2023-08-22T21:37:54.147Z,100841.66
2023-08-22T21:40:22.446Z,100842.03
2023-08-22T21:42:51.000Z,100842.00
2023-08-22T21:45:20.538Z,100844.44
2023-08-22T21:47:50.368Z,100843.38
2023-08-22T21:50:20.883Z,100841.91
2023-08-22T21:52:50.545Z,100840.16
2023-08-22T21:55:18.938Z,100838.72
2023-08-22T21:57:47.725Z,100843.25
2023-08-22T22:00:17.099Z,100842.56
2023-08-22T22:02:46.965Z,100845.28
2023-08-22T22:05:20.884Z,100846.72
2023-08-22T22:07:49.568Z,100854.34
2023-08-22T22:10:19.033Z,100850.19
2023-08-22T22:12:48.765Z,100851.41
2023-08-22T22:15:17.857Z,100856.16
2023-08-22T22:17:46.320Z,100861.72
2023-08-22T22:20:16.161Z,100860.66
2023-08-22T22:22:46.823Z,100859.00
2023-08-22T22:25:15.249Z,100852.94
2023-08-22T22:27:47.000Z,100849.19
2023-08-22T22:30:15.935Z,100847.72
2023-08-22T22:32:45.619Z,100845.41
2023-08-22T22:35:14.203Z,100849.16
2023-08-22T22:37:45.179Z,100835.69
2023-08-22T22:40:17.561Z,100832.56
2023-08-22T22:42:49.907Z,100835.44
2023-08-22T22:45:21.616Z,100837.69
2023-08-22T22:47:50.263Z,100831.00
2023-08-22T22:50:18.846Z,100834.25
2023-08-22T22:52:49.338Z,100839.59
2023-08-22T22:55:19.676Z,100838.09
2023-08-22T22:57:47.959Z,100838.06
2023-08-22T23:00:17.910Z,100837.59
2023-08-22T23:02:47.235Z,100836.31
2023-08-22T23:05:17.352Z,100841.25
2023-08-22T23:07:46.583Z,100844.91
2023-08-22T23:10:17.048Z,100838.88
2023-08-22T23:12:48.039Z,100840.28
2023-08-22T23:15:18.525Z,100840.28
2023-08-22T23:17:47.571Z,100833.59
2023-08-22T23:20:22.313Z,100845.22
2023-08-22T23:22:52.081Z,100847.00
2023-08-22T23:25:20.708Z,100845.69
2023-08-22T23:27:50.953Z,100846.06
2023-08-22T23:30:20.925Z,100844.59
2023-08-22T23:32:50.869Z,100837.56
2023-08-22T23:35:19.780Z,100848.50
2023-08-22T23:37:51.224Z,100838.78
2023-08-22T23:40:26.119Z,100836.25
2023-08-22T23:43:08.929Z,100838.50
2023-08-22T23:45:37.506Z,100836.06
2023-08-22T23:48:06.371Z,100846.47
2023-08-22T23:50:35.081Z,100839.22
2023-08-22T23:53:03.926Z,100833.22
2023-08-22T23:55:33.796Z,100837.75
2023-08-22T23:58:04.270Z,100836.06
